Time;durP1;ratioP1;P1;durP2;ratioP2;P2;SDS_P1;SDS_P2;PMS_P1;PMS_P2;Temp;Humidity;BMP_temperature;BMP_pressure;BME280_temperature;BME280_humidity;BME280_pressure;Samples;Min_cycle;Max_cycle;Signal;HPM_P1;HPM_P2
2022/07/15 00:00:36;;;;;;;6.78;1.63;;;;;;;;;;5052833;28;20205;-60
2022/07/15 00:03:03;;;;;;;6.78;1.95;;;;;;;;;;5069761;28;20178;-60
2022/07/15 00:05:29;;;;;;;8.98;1.80;;;;;;;;;;5055525;28;20182;-60
2022/07/15 00:07:58;;;;;;;6.35;1.70;;;;;;;;;;5053553;28;20484;-60
2022/07/15 00:10:24;;;;;;;7.65;1.70;;;;;;;;;;5035015;28;20644;-60
2022/07/15 00:12:55;;;;;;;7.43;1.50;;;;;;;;;;5070137;28;20650;-60
2022/07/15 00:15:23;;;;;;;8.95;1.48;;;;;;;;;;5055994;28;20179;-60
2022/07/15 00:17:50;;;;;;;8.43;1.33;;;;;;;;;;5048933;28;20215;-60
2022/07/15 00:20:16;;;;;;;7.10;1.45;;;;;;;;;;5065335;28;20186;-60
2022/07/15 00:22:43;;;;;;;11.07;2.25;;;;;;;;;;5075033;28;20260;-60
2022/07/15 00:25:10;;;;;;;8.43;1.63;;;;;;;;;;5059373;28;20193;-60
2022/07/15 00:27:36;;;;;;;8.77;1.52;;;;;;;;;;5049659;28;20193;-60
2022/07/15 00:30:03;;;;;;;11.95;1.70;;;;;;;;;;5041426;28;20187;-60
2022/07/15 00:32:30;;;;;;;6.55;1.33;;;;;;;;;;5038035;28;20277;-60
2022/07/15 00:34:56;;;;;;;6.53;1.35;;;;;;;;;;5069978;28;20182;-60
2022/07/15 00:37:22;;;;;;;5.78;1.13;;;;;;;;;;5054462;28;20638;-60
2022/07/15 00:39:48;;;;;;;4.85;1.40;;;;;;;;;;5072778;28;20178;-60
2022/07/15 00:45:01;;;;;;;5.13;1.00;;;;;;;;;;5054617;28;20182;-60
2022/07/15 00:47:27;;;;;;;8.05;1.30;;;;;;;;;;5063816;28;20245;-60
2022/07/15 00:49:54;;;;;;;4.78;1.10;;;;;;;;;;5074013;28;20178;-60
2022/07/15 00:52:20;;;;;;;7.22;1.60;;;;;;;;;;5074378;28;20185;-60
2022/07/15 00:54:50;;;;;;;6.57;1.20;;;;;;;;;;5041886;28;20182;-60
2022/07/15 00:57:17;;;;;;;7.53;1.02;;;;;;;;;;5055066;28;20199;-61
2022/07/15 00:59:44;;;;;;;6.82;1.25;;;;;;;;;;5051865;28;20274;-60
2022/07/15 01:02:11;;;;;;;6.75;1.15;;;;;;;;;;5046875;28;20190;-60
2022/07/15 01:04:39;;;;;;;6.05;1.00;;;;;;;;;;5067626;28;20181;-59
2022/07/15 01:07:05;;;;;;;8.10;1.00;;;;;;;;;;5074379;28;20754;-60
2022/07/15 01:09:31;;;;;;;4.97;1.10;;;;;;;;;;5073286;28;20178;-60
2022/07/15 01:11:58;;;;;;;6.22;1.33;;;;;;;;;;5073791;28;20639;-60
2022/07/15 01:14:24;;;;;;;4.85;1.10;;;;;;;;;;5049886;28;20198;-60
2022/07/15 01:16:52;;;;;;;3.88;0.98;;;;;;;;;;5055762;28;20698;-61
2022/07/15 01:19:19;;;;;;;7.78;1.10;;;;;;;;;;5043419;28;20191;-60
2022/07/15 01:21:45;;;;;;;4.25;1.00;;;;;;;;;;5040285;28;20205;-59
2022/07/15 01:24:12;;;;;;;3.00;1.00;;;;;;;;;;5053933;28;20190;-60
2022/07/15 01:26:44;;;;;;;6.22;1.27;;;;;;;;;;5052700;28;20191;-60
2022/07/15 01:29:12;;;;;;;5.20;1.17;;;;;;;;;;5045507;28;20187;-60
2022/07/15 01:31:39;;;;;;;8.27;1.50;;;;;;;;;;5039776;28;20568;-60
2022/07/15 01:34:06;;;;;;;4.82;1.30;;;;;;;;;;5057930;28;20198;-60
2022/07/15 01:36:34;;;;;;;4.82;1.15;;;;;;;;;;5036048;28;20183;-60
2022/07/15 01:39:01;;;;;;;6.28;1.00;;;;;;;;;;5046949;28;20183;-61
2022/07/15 01:41:28;;;;;;;6.63;1.08;;;;;;;;;;5037997;28;20241;-61
2022/07/15 01:43:54;;;;;;;5.88;1.23;;;;;;;;;;5067218;28;20237;-61
2022/07/15 01:46:21;;;;;;;6.75;1.80;;;;;;;;;;5039564;28;20245;-60
2022/07/15 01:51:50;;;;;;;3.88;1.10;;;;;;;;;;5068630;28;20331;-61
2022/07/15 01:54:17;;;;;;;7.10;0.82;;;;;;;;;;5045345;28;20187;-61
2022/07/15 01:56:43;;;;;;;5.00;1.02;;;;;;;;;;5054876;28;20175;-61
2022/07/15 01:59:12;;;;;;;6.45;1.10;;;;;;;;;;5037143;28;20195;-61
2022/07/15 02:01:40;;;;;;;5.25;1.27;;;;;;;;;;5039335;28;20198;-61
2022/07/15 02:04:12;;;;;;;3.67;1.05;;;;;;;;;;5068403;28;20648;-59
2022/07/15 02:06:39;;;;;;;5.15;1.10;;;;;;;;;;5054907;28;20187;-61
2022/07/15 02:09:07;;;;;;;5.22;1.25;;;;;;;;;;5030110;28;20195;-60
2022/07/15 02:11:38;;;;;;;4.55;1.02;;;;;;;;;;5054419;28;20206;-61
2022/07/15 02:14:05;;;;;;;4.18;1.10;;;;;;;;;;5050583;28;20179;-60
2022/07/15 02:16:32;;;;;;;5.15;1.05;;;;;;;;;;5039311;28;20178;-61
2022/07/15 02:19:01;;;;;;;6.32;0.77;;;;;;;;;;5045402;28;20333;-59
2022/07/15 02:21:28;;;;;;;7.03;1.10;;;;;;;;;;5054843;28;20233;-60
2022/07/15 02:23:55;;;;;;;4.75;0.90;;;;;;;;;;5050125;28;20274;-60
2022/07/15 02:26:21;;;;;;;6.10;0.80;;;;;;;;;;5054083;28;20659;-60
2022/07/15 02:28:48;;;;;;;4.43;1.08;;;;;;;;;;5053080;28;20214;-60
2022/07/15 02:31:15;;;;;;;6.18;1.00;;;;;;;;;;5054588;28;20179;-60
2022/07/15 02:33:44;;;;;;;5.65;1.27;;;;;;;;;;5049620;28;20256;-60
2022/07/15 02:36:12;;;;;;;9.60;1.20;;;;;;;;;;5038872;28;20550;-60
2022/07/15 02:38:40;;;;;;;4.28;1.17;;;;;;;;;;5046971;28;20214;-60
2022/07/15 02:41:08;;;;;;;8.90;1.70;;;;;;;;;;5042435;28;20194;-60
2022/07/15 02:43:36;;;;;;;5.40;1.30;;;;;;;;;;5053623;28;20182;-60
2022/07/15 02:46:03;;;;;;;8.32;1.00;;;;;;;;;;5029154;28;20216;-63
2022/07/15 02:48:31;;;;;;;3.40;1.00;;;;;;;;;;5025318;28;20188;-60
2022/07/15 02:50:59;;;;;;;7.47;1.30;;;;;;;;;;5013239;28;20172;-60
2022/07/15 02:53:28;;;;;;;11.32;1.45;;;;;;;;;;5009433;28;20198;-60
2022/07/15 02:55:58;;;;;;;7.05;1.33;;;;;;;;;;5032114;28;20211;-60
2022/07/15 02:58:24;;;;;;;4.75;1.42;;;;;;;;;;5026774;28;20203;-60
2022/07/15 03:00:50;;;;;;;6.53;1.20;;;;;;;;;;5031843;28;20176;-60
2022/07/15 03:03:17;;;;;;;8.02;1.35;;;;;;;;;;5029550;28;20180;-61
2022/07/15 03:05:43;;;;;;;5.25;1.08;;;;;;;;;;5024334;28;20251;-60
2022/07/15 03:08:10;;;;;;;7.43;1.30;;;;;;;;;;5014115;28;20685;-61
2022/07/15 03:10:37;;;;;;;9.05;1.60;;;;;;;;;;5011010;28;20208;-60
2022/07/15 03:13:04;;;;;;;8.88;1.85;;;;;;;;;;4996662;28;20188;-60
2022/07/15 03:15:30;;;;;;;6.55;1.27;;;;;;;;;;5031777;28;20191;-60
2022/07/15 03:17:56;;;;;;;5.00;1.50;;;;;;;;;;5026597;28;20223;-60
2022/07/15 03:20:25;;;;;;;6.32;1.40;;;;;;;;;;5008065;28;20314;-63
2022/07/15 03:22:51;;;;;;;8.13;1.63;;;;;;;;;;5030926;28;20179;-60
2022/07/15 03:25:18;;;;;;;4.97;1.30;;;;;;;;;;5031625;28;20195;-60
2022/07/15 03:27:44;;;;;;;8.55;1.65;;;;;;;;;;5031275;28;20192;-60
2022/07/15 03:30:12;;;;;;;6.22;1.65;;;;;;;;;;5028582;28;20179;-60
2022/07/15 03:32:38;;;;;;;6.07;1.52;;;;;;;;;;5032076;28;20188;-60
2022/07/15 03:35:05;;;;;;;8.85;1.77;;;;;;;;;;5023205;28;20650;-60
2022/07/15 03:37:35;;;;;;;7.80;1.63;;;;;;;;;;5004609;28;20307;-60
2022/07/15 03:40:03;;;;;;;9.40;1.73;;;;;;;;;;5030094;28;20188;-60
2022/07/15 03:42:30;;;;;;;8.77;1.90;;;;;;;;;;5043016;28;20212;-60
2022/07/15 03:44:57;;;;;;;9.88;2.40;;;;;;;;;;5021088;28;20263;-60
2022/07/15 03:47:23;;;;;;;6.28;1.60;;;;;;;;;;5020623;28;20265;-60
2022/07/15 03:49:52;;;;;;;5.15;1.77;;;;;;;;;;5027775;28;20188;-60
2022/07/15 03:52:20;;;;;;;5.57;1.58;;;;;;;;;;5031227;28;20552;-60
2022/07/15 03:54:47;;;;;;;9.90;2.17;;;;;;;;;;5023198;28;20268;-61
2022/07/15 03:57:14;;;;;;;10.95;2.03;;;;;;;;;;5014615;28;20226;-60
2022/07/15 03:59:40;;;;;;;5.63;1.60;;;;;;;;;;5033943;28;20196;-60
2022/07/15 04:02:06;;;;;;;4.55;1.55;;;;;;;;;;5030999;28;20216;-60
2022/07/15 04:04:32;;;;;;;7.03;1.75;;;;;;;;;;5024515;28;20184;-60
2022/07/15 04:06:59;;;;;;;11.85;1.80;;;;;;;;;;5018322;28;20207;-60
2022/07/15 04:09:26;;;;;;;8.65;1.40;;;;;;;;;;5026849;28;20188;-60
2022/07/15 04:11:52;;;;;;;7.03;2.00;;;;;;;;;;5046227;28;20214;-60
2022/07/15 04:14:22;;;;;;;9.48;1.98;;;;;;;;;;5031872;28;20196;-60
2022/07/15 04:16:48;;;;;;;7.47;1.77;;;;;;;;;;5028597;28;20249;-60
2022/07/15 04:19:33;;;;;;;13.55;1.95;;;;;;;;;;5040474;28;20203;-60
2022/07/15 04:22:02;;;;;;;6.65;1.63;;;;;;;;;;5024236;28;20222;-60
2022/07/15 04:24:32;;;;;;;6.32;1.67;;;;;;;;;;5018218;28;20649;-60
2022/07/15 04:26:58;;;;;;;7.30;1.48;;;;;;;;;;5034169;28;20199;-60
2022/07/15 04:29:25;;;;;;;9.23;1.50;;;;;;;;;;5031510;28;20679;-60
2022/07/15 04:31:51;;;;;;;7.18;2.40;;;;;;;;;;5032924;28;20188;-60
2022/07/15 04:34:26;;;;;;;6.20;1.42;;;;;;;;;;5016669;28;20191;-60
2022/07/15 04:36:52;;;;;;;13.45;1.50;;;;;;;;;;5033344;28;20246;-61
2022/07/15 04:39:18;;;;;;;6.85;1.10;;;;;;;;;;5025918;28;20263;-60
2022/07/15 04:41:45;;;;;;;3.20;1.23;;;;;;;;;;5021138;28;20208;-60
2022/07/15 04:44:12;;;;;;;11.57;2.05;;;;;;;;;;5033292;28;20557;-60
2022/07/15 04:46:38;;;;;;;7.93;1.48;;;;;;;;;;5031963;28;20659;-61
2022/07/15 04:52:09;;;;;;;12.23;1.50;;;;;;;;;;5015683;28;20200;-60
2022/07/15 04:54:39;;;;;;;19.33;1.98;;;;;;;;;;5023197;28;20280;-61
2022/07/15 04:57:07;;;;;;;15.65;1.70;;;;;;;;;;5031836;28;20311;-60
2022/07/15 04:59:35;;;;;;;9.00;1.83;;;;;;;;;;5023827;28;20677;-61
2022/07/15 05:02:02;;;;;;;13.60;1.85;;;;;;;;;;5040280;28;20241;-60
2022/07/15 05:04:35;;;;;;;13.65;1.80;;;;;;;;;;5022533;28;20185;-61
2022/07/15 05:07:02;;;;;;;11.73;1.88;;;;;;;;;;5016532;28;20238;-61
2022/07/15 05:09:31;;;;;;;26.63;2.17;;;;;;;;;;5025048;28;20223;-61
2022/07/15 05:11:58;;;;;;;20.50;2.38;;;;;;;;;;5027483;28;20251;-60
2022/07/15 05:14:24;;;;;;;18.55;2.55;;;;;;;;;;5028222;28;20184;-61
2022/07/15 05:16:51;;;;;;;19.95;2.35;;;;;;;;;;5015475;28;20645;-61
2022/07/15 05:19:18;;;;;;;13.02;1.98;;;;;;;;;;5028704;28;20195;-60
2022/07/15 05:21:44;;;;;;;12.02;2.00;;;;;;;;;;5016962;28;20193;-60
2022/07/15 05:24:10;;;;;;;7.53;1.55;;;;;;;;;;5007207;28;20271;-60
2022/07/15 05:26:37;;;;;;;6.93;1.40;;;;;;;;;;5033348;28;20192;-61
2022/07/15 05:29:04;;;;;;;7.40;1.40;;;;;;;;;;5023844;28;20243;-61
2022/07/15 05:31:32;;;;;;;10.68;2.30;;;;;;;;;;5020340;28;20268;-60
2022/07/15 05:34:00;;;;;;;9.32;1.30;;;;;;;;;;5011582;28;20258;-60
2022/07/15 05:36:26;;;;;;;9.75;1.60;;;;;;;;;;5029984;28;20199;-60
2022/07/15 05:38:55;;;;;;;6.50;1.33;;;;;;;;;;5032720;28;20242;-60
2022/07/15 05:41:22;;;;;;;5.90;1.30;;;;;;;;;;5033834;28;20649;-60
2022/07/15 05:43:48;;;;;;;9.23;1.80;;;;;;;;;;5029414;28;20199;-60
2022/07/15 05:46:14;;;;;;;5.32;1.40;;;;;;;;;;5037188;28;20231;-60
2022/07/15 05:48:54;;;;;;;6.10;1.27;;;;;;;;;;5042296;28;20190;-61
2022/07/15 05:51:24;;;;;;;3.67;1.08;;;;;;;;;;5074076;28;20538;-58
2022/07/15 05:53:50;;;;;;;4.10;1.23;;;;;;;;;;5048346;28;20183;-59
2022/07/15 05:56:16;;;;;;;5.32;1.40;;;;;;;;;;5046887;28;20595;-58
2022/07/15 05:58:42;;;;;;;8.48;1.30;;;;;;;;;;5034513;28;20211;-58
2022/07/15 06:01:13;;;;;;;4.40;0.80;;;;;;;;;;5040582;28;20268;-59
2022/07/15 06:03:40;;;;;;;6.80;1.23;;;;;;;;;;5038061;28;20635;-59
2022/07/15 06:06:07;;;;;;;4.85;1.08;;;;;;;;;;5055439;28;20183;-58
2022/07/15 06:08:35;;;;;;;7.15;0.85;;;;;;;;;;5053589;28;20287;-58
2022/07/15 06:11:02;;;;;;;3.65;0.88;;;;;;;;;;5054309;28;20182;-59
2022/07/15 06:13:28;;;;;;;6.32;1.10;;;;;;;;;;5054756;28;20237;-59
2022/07/15 06:15:56;;;;;;;6.35;2.78;;;;;;;;;;5054610;28;20640;-59
2022/07/15 06:18:25;;;;;;;5.80;1.00;;;;;;;;;;5035319;28;20218;-59
2022/07/15 06:20:52;;;;;;;6.28;1.00;;;;;;;;;;5068898;28;20191;-59
2022/07/15 06:23:19;;;;;;;8.68;1.38;;;;;;;;;;5072422;28;20186;-59
2022/07/15 06:25:45;;;;;;;5.47;1.10;;;;;;;;;;5055881;28;20187;-59
2022/07/15 06:28:13;;;;;;;5.68;0.80;;;;;;;;;;5055112;28;20200;-59
2022/07/15 06:30:39;;;;;;;2.75;0.80;;;;;;;;;;5038879;28;20187;-59
2022/07/15 06:33:06;;;;;;;7.95;1.00;;;;;;;;;;5045329;28;20182;-59
2022/07/15 06:35:32;;;;;;;5.32;0.95;;;;;;;;;;5055972;28;20588;-59
2022/07/15 06:37:58;;;;;;;4.93;1.48;;;;;;;;;;5053608;28;20691;-59
2022/07/15 06:40:24;;;;;;;9.98;1.33;;;;;;;;;;5036725;28;20175;-59
2022/07/15 06:42:50;;;;;;;3.88;0.80;;;;;;;;;;5039727;28;20185;-59
2022/07/15 06:45:25;;;;;;;3.08;0.90;;;;;;;;;;5056526;28;20190;-59
2022/07/15 06:47:51;;;;;;;5.18;0.90;;;;;;;;;;5070666;28;20230;-59
2022/07/15 06:50:19;;;;;;;3.00;0.85;;;;;;;;;;5038471;28;20281;-59
2022/07/15 06:52:46;;;;;;;5.53;0.85;;;;;;;;;;5021594;28;20179;-59
2022/07/15 06:55:12;;;;;;;2.40;0.98;;;;;;;;;;5032659;28;20655;-59
2022/07/15 06:57:40;;;;;;;3.75;0.90;;;;;;;;;;5047321;28;20218;-60
2022/07/15 07:00:07;;;;;;;5.32;0.98;;;;;;;;;;5048840;28;20175;-60
2022/07/15 07:02:38;;;;;;;6.00;1.20;;;;;;;;;;5055498;28;20193;-60
2022/07/15 07:05:05;;;;;;;4.00;0.82;;;;;;;;;;5064462;28;20262;-60
2022/07/15 07:07:31;;;;;;;2.47;0.80;;;;;;;;;;5039423;28;20187;-58
2022/07/15 07:09:57;;;;;;;4.78;1.00;;;;;;;;;;5068493;28;20191;-58
2022/07/15 07:12:25;;;;;;;7.07;0.85;;;;;;;;;;5041480;28;20648;-58
2022/07/15 07:14:53;;;;;;;4.70;1.00;;;;;;;;;;5060382;28;20183;-58
2022/07/15 07:17:20;;;;;;;2.85;0.80;;;;;;;;;;5071489;28;20262;-58
2022/07/15 07:19:46;;;;;;;4.22;0.70;;;;;;;;;;5072004;28;20182;-58
2022/07/15 07:22:12;;;;;;;4.13;0.82;;;;;;;;;;5073234;28;20522;-58
2022/07/15 07:24:40;;;;;;;3.47;0.93;;;;;;;;;;5069639;28;20187;-58
2022/07/15 07:27:06;;;;;;;3.95;0.95;;;;;;;;;;5072697;28;20187;-58
2022/07/15 07:29:33;;;;;;;4.38;0.63;;;;;;;;;;5070950;28;20179;-58
2022/07/15 07:31:59;;;;;;;2.55;0.60;;;;;;;;;;5072336;28;20170;-59
2022/07/15 07:34:25;;;;;;;2.83;0.90;;;;;;;;;;5054422;28;20644;-58
2022/07/15 07:36:51;;;;;;;2.15;0.60;;;;;;;;;;5037830;28;20290;-58
2022/07/15 07:39:18;;;;;;;2.92;0.93;;;;;;;;;;5043024;28;20187;-59
2022/07/15 07:41:44;;;;;;;2.75;0.90;;;;;;;;;;5070124;28;20624;-59
2022/07/15 07:44:10;;;;;;;4.07;0.70;;;;;;;;;;5071690;28;20178;-59
2022/07/15 07:46:36;;;;;;;8.60;0.82;;;;;;;;;;5068216;28;20234;-59
2022/07/15 07:49:03;;;;;;;2.65;0.80;;;;;;;;;;5046928;28;20189;-58
2022/07/15 07:51:30;;;;;;;5.18;0.75;;;;;;;;;;5050514;28;20190;-58
2022/07/15 07:53:56;;;;;;;1.65;0.70;;;;;;;;;;5071208;28;20194;-59
2022/07/15 07:56:23;;;;;;;2.42;0.90;;;;;;;;;;5053423;28;20183;-58
2022/07/15 07:58:49;;;;;;;2.42;0.40;;;;;;;;;;5065840;28;20206;-59
2022/07/15 08:01:15;;;;;;;2.55;0.80;;;;;;;;;;5020024;28;20557;-58
2022/07/15 08:03:41;;;;;;;2.03;0.80;;;;;;;;;;5054573;28;20179;-58
2022/07/15 08:06:08;;;;;;;2.30;0.70;;;;;;;;;;5065331;28;20666;-58
2022/07/15 08:08:35;;;;;;;1.52;0.70;;;;;;;;;;5061838;28;20214;-58
2022/07/15 08:11:01;;;;;;;2.22;0.68;;;;;;;;;;5071308;28;20190;-58
2022/07/15 08:13:29;;;;;;;0.93;0.60;;;;;;;;;;5070419;28;20209;-59
2022/07/15 08:15:56;;;;;;;2.80;0.63;;;;;;;;;;5070605;28;20187;-60
2022/07/15 08:18:22;;;;;;;3.70;0.70;;;;;;;;;;5065070;28;20271;-58
2022/07/15 08:20:48;;;;;;;2.95;0.60;;;;;;;;;;5056145;28;20897;-60
2022/07/15 08:23:20;;;;;;;3.53;0.70;;;;;;;;;;5070959;28;20670;-60
2022/07/15 08:25:48;;;;;;;2.17;0.50;;;;;;;;;;5042967;28;20543;-59
2022/07/15 08:28:14;;;;;;;3.28;0.55;;;;;;;;;;5054000;28;20767;-60
2022/07/15 08:30:40;;;;;;;1.60;0.45;;;;;;;;;;5071040;28;20178;-60
2022/07/15 08:33:06;;;;;;;2.63;0.50;;;;;;;;;;5053119;28;20568;-60
2022/07/15 08:35:34;;;;;;;3.95;0.73;;;;;;;;;;5061080;28;20562;-60
2022/07/15 08:38:07;;;;;;;4.13;1.88;;;;;;;;;;5070086;28;20699;-60
2022/07/15 08:40:34;;;;;;;2.47;0.70;;;;;;;;;;5034354;28;20183;-59
2022/07/15 08:43:00;;;;;;;5.15;0.60;;;;;;;;;;5048708;28;20186;-60
2022/07/15 08:45:27;;;;;;;3.08;0.90;;;;;;;;;;5073763;28;20170;-59
2022/07/15 08:47:55;;;;;;;1.80;0.60;;;;;;;;;;5061998;28;20241;-59
2022/07/15 08:50:22;;;;;;;2.95;0.70;;;;;;;;;;5037057;28;20255;-59
2022/07/15 08:52:51;;;;;;;11.93;1.02;;;;;;;;;;5073028;28;20269;-59
2022/07/15 08:55:17;;;;;;;8.25;1.48;;;;;;;;;;5059647;28;20182;-59
2022/07/15 08:57:51;;;;;;;4.68;0.70;;;;;;;;;;5070136;28;20209;-59
2022/07/15 09:00:17;;;;;;;3.08;0.65;;;;;;;;;;5056475;28;20179;-59
2022/07/15 09:02:44;;;;;;;3.45;0.60;;;;;;;;;;5073174;28;20639;-59
2022/07/15 09:05:23;;;;;;;3.15;0.90;;;;;;;;;;5065815;28;20204;-59
2022/07/15 09:07:52;;;;;;;1.77;0.50;;;;;;;;;;5064113;28;20212;-59
2022/07/15 09:10:18;;;;;;;7.75;0.85;;;;;;;;;;5064370;28;20273;-57
2022/07/15 09:12:48;;;;;;;2.47;0.50;;;;;;;;;;5051819;28;20225;-58
2022/07/15 09:15:31;;;;;;;1.90;0.75;;;;;;;;;;5054928;28;20258;-59
2022/07/15 09:18:06;;;;;;;1.33;0.60;;;;;;;;;;5067679;28;20300;-59
2022/07/15 09:20:32;;;;;;;1.77;0.52;;;;;;;;;;5069681;28;20186;-59
2022/07/15 09:22:59;;;;;;;3.85;0.88;;;;;;;;;;5067555;28;20183;-58
2022/07/15 09:25:27;;;;;;;2.80;0.68;;;;;;;;;;5040758;28;20647;-59
2022/07/15 09:27:54;;;;;;;1.77;0.60;;;;;;;;;;5055810;28;20214;-59
2022/07/15 09:36:01;;;;;;;1.33;0.60;;;;;;;;;;5074756;28;20186;-58
2022/07/15 09:38:27;;;;;;;4.50;0.60;;;;;;;;;;5058580;28;20222;-59
2022/07/15 09:40:54;;;;;;;2.97;0.43;;;;;;;;;;5055609;28;20648;-59
2022/07/15 09:43:20;;;;;;;2.95;0.60;;;;;;;;;;5043230;28;20182;-59
2022/07/15 09:45:47;;;;;;;3.97;0.60;;;;;;;;;;5057816;28;20183;-58
2022/07/15 09:48:13;;;;;;;3.10;0.80;;;;;;;;;;5053970;28;20257;-58
2022/07/15 09:50:39;;;;;;;4.20;0.65;;;;;;;;;;5048950;28;20215;-59
2022/07/15 09:53:11;;;;;;;4.07;0.60;;;;;;;;;;5053302;28;20197;-58
2022/07/15 09:55:37;;;;;;;6.32;0.85;;;;;;;;;;5074244;28;20541;-58
2022/07/15 09:58:07;;;;;;;2.67;0.80;;;;;;;;;;5071574;28;20736;-58
2022/07/15 10:00:34;;;;;;;6.47;0.82;;;;;;;;;;5055036;28;20258;-58
2022/07/15 10:03:02;;;;;;;5.00;1.10;;;;;;;;;;5055990;28;20182;-58
2022/07/15 10:05:30;;;;;;;4.10;0.68;;;;;;;;;;5070082;28;20187;-59
2022/07/15 10:07:58;;;;;;;5.60;1.10;;;;;;;;;;5056762;28;20191;-59
2022/07/15 10:10:25;;;;;;;3.88;0.70;;;;;;;;;;5056123;28;20186;-57
2022/07/15 10:12:54;;;;;;;5.55;0.80;;;;;;;;;;5069014;28;20650;-58
2022/07/15 10:15:39;;;;;;;2.45;0.80;;;;;;;;;;5049674;28;20210;-58
2022/07/15 10:18:18;;;;;;;5.40;0.82;;;;;;;;;;5054320;28;20199;-58
2022/07/15 10:21:03;;;;;;;4.68;0.60;;;;;;;;;;5072889;28;20237;-58
2022/07/15 10:23:55;;;;;;;2.40;0.82;;;;;;;;;;5070702;28;20186;-61
2022/07/15 10:26:40;;;;;;;4.32;0.63;;;;;;;;;;5067911;28;20266;-60
2022/07/15 10:29:08;;;;;;;5.32;0.90;;;;;;;;;;5055695;28;20179;-60
2022/07/15 10:31:35;;;;;;;4.45;0.73;;;;;;;;;;5059596;28;20179;-58
2022/07/15 10:34:05;;;;;;;8.00;0.90;;;;;;;;;;5056069;28;20608;-58
2022/07/15 10:37:01;;;;;;;2.55;0.75;;;;;;;;;;5054107;28;20702;-60
2022/07/15 10:39:46;;;;;;;4.68;1.02;;;;;;;;;;5032951;28;20643;-58
2022/07/15 10:42:12;;;;;;;3.72;1.00;;;;;;;;;;5069630;28;20181;-58
2022/07/15 10:44:49;;;;;;;3.53;1.20;;;;;;;;;;5052769;28;20190;-57
2022/07/15 10:47:15;;;;;;;2.55;0.90;;;;;;;;;;5047135;28;20226;-56
2022/07/15 10:49:42;;;;;;;4.55;1.30;;;;;;;;;;5069168;28;20202;-58
2022/07/15 10:52:13;;;;;;;4.95;0.70;;;;;;;;;;5073686;28;20181;-59
2022/07/15 10:54:40;;;;;;;1.17;0.80;;;;;;;;;;5051517;28;20652;-58
2022/07/15 10:57:07;;;;;;;2.63;0.60;;;;;;;;;;5073428;28;20639;-59
2022/07/15 10:59:48;;;;;;;7.10;0.90;;;;;;;;;;5071889;28;20210;-58
2022/07/15 11:02:15;;;;;;;7.72;0.95;;;;;;;;;;5071396;28;20208;-58
2022/07/15 11:04:42;;;;;;;1.98;0.70;;;;;;;;;;5067740;28;20269;-56
2022/07/15 11:07:09;;;;;;;1.45;0.70;;;;;;;;;;5071205;28;20194;-58
2022/07/15 11:09:51;;;;;;;10.60;0.82;;;;;;;;;;5071543;28;20648;-57
2022/07/15 11:12:19;;;;;;;12.23;1.45;;;;;;;;;;5071938;28;20178;-58
2022/07/15 11:14:48;;;;;;;6.55;0.82;;;;;;;;;;5056808;28;20186;-57
2022/07/15 11:17:16;;;;;;;2.97;0.85;;;;;;;;;;5058993;28;20225;-57
2022/07/15 11:19:46;;;;;;;3.20;0.73;;;;;;;;;;5070500;28;20193;-58
2022/07/15 11:22:12;;;;;;;5.35;0.93;;;;;;;;;;5073051;28;20174;-56
2022/07/15 11:24:38;;;;;;;4.78;1.00;;;;;;;;;;5071599;28;20182;-56
2022/07/15 11:27:04;;;;;;;4.75;1.00;;;;;;;;;;5058728;28;20186;-56
2022/07/15 11:29:44;;;;;;;7.82;1.70;;;;;;;;;;5036607;28;20197;-56
2022/07/15 11:32:10;;;;;;;6.82;1.63;;;;;;;;;;5054145;28;20179;-56
2022/07/15 11:34:48;;;;;;;2.80;1.40;;;;;;;;;;5053259;28;20264;-55
2022/07/15 11:37:18;;;;;;;5.00;1.30;;;;;;;;;;5056310;28;20281;-58
2022/07/15 11:40:04;;;;;;;6.53;1.10;;;;;;;;;;5056558;28;20699;-58
2022/07/15 11:45:31;;;;;;;18.27;1.50;;;;;;;;;;5072836;28;20217;-56
2022/07/15 11:47:57;;;;;;;9.75;1.48;;;;;;;;;;5053397;28;20291;-58
2022/07/15 11:50:23;;;;;;;7.28;1.30;;;;;;;;;;5073874;28;20658;-57
2022/07/15 11:52:53;;;;;;;3.35;1.23;;;;;;;;;;5065283;28;20194;-55
2022/07/15 11:55:19;;;;;;;9.50;1.48;;;;;;;;;;5072043;28;20178;-56
2022/07/15 11:57:47;;;;;;;4.43;1.35;;;;;;;;;;5053638;28;20336;-56
2022/07/15 12:00:13;;;;;;;3.17;1.10;;;;;;;;;;5071382;28;20187;-56
2022/07/15 12:02:40;;;;;;;6.07;1.60;;;;;;;;;;5060245;28;20194;-56
2022/07/15 12:05:08;;;;;;;8.77;1.55;;;;;;;;;;5069841;28;20266;-56
2022/07/15 12:07:45;;;;;;;8.02;1.58;;;;;;;;;;5071588;28;20191;-56
2022/07/15 12:10:12;;;;;;;18.55;2.30;;;;;;;;;;5061258;28;20179;-57
2022/07/15 12:12:57;;;;;;;12.35;2.00;;;;;;;;;;5052344;28;20183;-54
2022/07/15 12:15:23;;;;;;;4.40;1.65;;;;;;;;;;5070314;28;20178;-55
2022/07/15 12:17:50;;;;;;;10.80;2.33;;;;;;;;;;5053886;28;20622;-53
2022/07/15 12:20:16;;;;;;;9.48;1.80;;;;;;;;;;5073005;28;20195;-56
2022/07/15 12:23:01;;;;;;;4.35;2.05;;;;;;;;;;5075525;28;20232;-56
2022/07/15 12:25:27;;;;;;;11.75;2.22;;;;;;;;;;5046640;28;20175;-56
2022/07/15 12:27:53;;;;;;;8.50;1.63;;;;;;;;;;5048773;28;20197;-58
2022/07/15 12:30:19;;;;;;;10.75;2.08;;;;;;;;;;5035335;28;20237;-55
2022/07/15 12:32:45;;;;;;;7.45;2.05;;;;;;;;;;5069212;28;20187;-56
2022/07/15 12:35:11;;;;;;;4.72;1.60;;;;;;;;;;5040796;28;20209;-56
2022/07/15 12:37:40;;;;;;;4.97;1.85;;;;;;;;;;5075141;28;20215;-57
2022/07/15 12:40:08;;;;;;;13.23;2.40;;;;;;;;;;5071949;28;20244;-56
2022/07/15 12:42:41;;;;;;;11.75;2.25;;;;;;;;;;5076099;28;20205;-55
2022/07/15 12:45:13;;;;;;;5.93;1.85;;;;;;;;;;5069930;28;20719;-54
2022/07/15 12:47:59;;;;;;;13.70;2.20;;;;;;;;;;5036522;28;20232;-56
2022/07/15 12:50:27;;;;;;;16.55;2.40;;;;;;;;;;5057169;28;20610;-55
2022/07/15 12:52:54;;;;;;;5.93;2.30;;;;;;;;;;5074814;28;20170;-58
2022/07/15 12:55:20;;;;;;;12.48;2.20;;;;;;;;;;5076178;28;20186;-56
2022/07/15 12:57:47;;;;;;;6.03;1.98;;;;;;;;;;5075802;28;20206;-56
2022/07/15 13:00:17;;;;;;;18.58;2.78;;;;;;;;;;5054656;28;20423;-53
2022/07/15 13:02:56;;;;;;;9.75;2.00;;;;;;;;;;5061508;28;20187;-56
2022/07/15 13:05:22;;;;;;;13.23;1.98;;;;;;;;;;5075819;28;20178;-57
2022/07/15 13:07:48;;;;;;;10.93;2.40;;;;;;;;;;5053942;28;20194;-57
2022/07/15 13:10:14;;;;;;;12.77;2.13;;;;;;;;;;5072845;28;20191;-55
2022/07/15 13:12:40;;;;;;;9.02;2.10;;;;;;;;;;5073477;28;20186;-56
2022/07/15 13:15:07;;;;;;;11.35;1.95;;;;;;;;;;5056088;28;20556;-56
2022/07/15 13:17:33;;;;;;;14.43;2.58;;;;;;;;;;5055251;28;20206;-55
2022/07/15 13:20:00;;;;;;;19.23;3.15;;;;;;;;;;5072791;28;20656;-55
2022/07/15 13:22:28;;;;;;;13.18;2.05;;;;;;;;;;5073355;28;20186;-58
2022/07/15 13:24:55;;;;;;;21.77;3.00;;;;;;;;;;5046136;28;20554;-55
2022/07/15 13:27:21;;;;;;;12.02;2.53;;;;;;;;;;5055015;28;20656;-54
2022/07/15 13:29:47;;;;;;;11.05;1.80;;;;;;;;;;5068516;28;20212;-55
2022/07/15 13:32:13;;;;;;;9.30;1.88;;;;;;;;;;5073224;28;20175;-55
2022/07/15 13:34:40;;;;;;;8.32;2.00;;;;;;;;;;5051428;28;20679;-53
2022/07/15 13:37:06;;;;;;;10.52;2.63;;;;;;;;;;5054893;28;20186;-56
2022/07/15 13:39:32;;;;;;;8.77;2.13;;;;;;;;;;5067709;28;20213;-56
2022/07/15 13:41:59;;;;;;;5.63;1.90;;;;;;;;;;5036711;28;20190;-55
2022/07/15 13:44:25;;;;;;;7.43;1.98;;;;;;;;;;5072912;28;20269;-56
2022/07/15 13:46:51;;;;;;;9.88;1.95;;;;;;;;;;5071034;28;20218;-56
2022/07/15 13:49:18;;;;;;;8.07;1.95;;;;;;;;;;5057866;28;20222;-56
2022/07/15 13:51:44;;;;;;;7.47;2.10;;;;;;;;;;5073786;28;20233;-57
2022/07/15 13:54:10;;;;;;;7.00;2.30;;;;;;;;;;5068861;28;20203;-56
2022/07/15 13:56:36;;;;;;;19.25;2.50;;;;;;;;;;5036890;28;20179;-55
2022/07/15 13:59:03;;;;;;;7.50;2.00;;;;;;;;;;5055284;28;20222;-56
2022/07/15 14:01:31;;;;;;;5.20;2.10;;;;;;;;;;5074751;28;20194;-57
2022/07/15 14:03:57;;;;;;;6.05;2.13;;;;;;;;;;5073480;28;20186;-56
2022/07/15 14:06:24;;;;;;;10.88;2.17;;;;;;;;;;5069618;28;20187;-56
2022/07/15 14:08:51;;;;;;;9.75;2.08;;;;;;;;;;5067056;28;20699;-55
2022/07/15 14:11:18;;;;;;;5.00;1.58;;;;;;;;;;5073653;28;20186;-57
2022/07/15 14:13:44;;;;;;;5.18;1.95;;;;;;;;;;5072988;28;20182;-57
2022/07/15 14:16:10;;;;;;;5.38;1.90;;;;;;;;;;5071201;28;20602;-57
2022/07/15 14:18:43;;;;;;;5.40;2.00;;;;;;;;;;5061748;28;20238;-58
2022/07/15 14:21:11;;;;;;;8.43;2.05;;;;;;;;;;5073663;28;20178;-56
2022/07/15 14:23:37;;;;;;;6.57;2.00;;;;;;;;;;5073216;28;20190;-57
2022/07/15 14:26:04;;;;;;;11.73;2.15;;;;;;;;;;5063136;28;20581;-57
2022/07/15 14:28:30;;;;;;;5.43;2.03;;;;;;;;;;5068565;28;20194;-58
2022/07/15 14:30:57;;;;;;;5.80;2.00;;;;;;;;;;5068017;28;20256;-56
2022/07/15 14:33:23;;;;;;;9.70;2.45;;;;;;;;;;5070005;28;20304;-57
2022/07/15 14:35:50;;;;;;;10.25;2.50;;;;;;;;;;5037591;28;20245;-57
2022/07/15 14:38:16;;;;;;;10.05;3.15;;;;;;;;;;5067052;28;20229;-59
2022/07/15 14:40:42;;;;;;;10.95;3.13;;;;;;;;;;5047042;28;20189;-59
2022/07/15 14:43:08;;;;;;;8.32;2.75;;;;;;;;;;5050421;28;20553;-58
2022/07/15 14:45:35;;;;;;;8.13;2.78;;;;;;;;;;5043956;28;20603;-58
2022/07/15 14:48:01;;;;;;;8.52;2.65;;;;;;;;;;5039522;28;20222;-60
2022/07/15 14:50:27;;;;;;;9.52;2.65;;;;;;;;;;5058928;28;20576;-58
2022/07/15 14:52:53;;;;;;;9.48;2.58;;;;;;;;;;5035289;28;20588;-60
2022/07/15 14:55:19;;;;;;;8.45;2.38;;;;;;;;;;5049482;28;20186;-59
2022/07/15 14:57:45;;;;;;;8.50;2.50;;;;;;;;;;5072148;28;20226;-56
2022/07/15 15:00:12;;;;;;;7.80;2.75;;;;;;;;;;5042157;28;20237;-57
2022/07/15 15:02:38;;;;;;;8.68;2.33;;;;;;;;;;5056414;28;20585;-58